Time;durP1;ratioP1;P1;durP2;ratioP2;P2;SDS_P1;SDS_P2;PMS_P1;PMS_P2;Temp;Humidity;BMP_temperature;BMP_pressure;BME280_temperature;BME280_humidity;BME280_pressure;Samples;Min_cycle;Max_cycle;Signal;HPM_P1;HPM_P2
2023/08/15 00:02:01;;;;;;;;;1.00;1.00;;;;;28.59;41.24;101198.25;5074284;28;46083;-77
2023/08/15 00:04:27;;;;;;;;;1.00;1.00;;;;;28.62;41.47;101202.34;5074085;28;45296;-77
2023/08/15 00:06:52;;;;;;;;;0.00;0.00;;;;;28.60;40.96;101197.19;5075699;27;45675;-77
2023/08/15 00:09:18;;;;;;;;;0.33;0.33;;;;;28.61;41.27;101200.69;5075094;27;46199;-77
2023/08/15 00:11:43;;;;;;;;;1.00;1.00;;;;;28.59;41.31;101200.94;5075090;28;45443;-77
2023/08/15 00:14:09;;;;;;;;;1.00;1.00;;;;;28.59;41.48;101200.94;5077178;27;45766;-77
2023/08/15 00:16:35;;;;;;;;;3.00;1.00;;;;;28.61;41.22;101198.84;5078905;27;45646;-76
2023/08/15 00:19:01;;;;;;;;;2.33;2.00;;;;;28.58;41.70;101191.25;5060327;28;46113;-76
2023/08/15 00:21:26;;;;;;;;;1.00;1.00;;;;;28.58;41.30;101188.56;5078681;28;45361;-76
2023/08/15 00:23:52;;;;;;;;;1.00;1.00;;;;;28.53;41.85;101177.69;5060416;28;45328;-76
2023/08/15 00:26:17;;;;;;;;;0.00;0.00;;;;;28.58;41.37;101182.38;5060045;28;45342;-77
2023/08/15 00:28:42;;;;;;;;;0.00;0.00;;;;;28.59;41.41;101179.50;5060042;28;47843;-77
2023/08/15 00:31:08;;;;;;;;;0.00;0.00;;;;;28.55;41.76;101180.97;5078890;27;45270;-77
2023/08/15 00:33:33;;;;;;;;;0.00;0.00;;;;;28.61;41.62;101182.78;5077950;27;45353;-77
2023/08/15 00:35:59;;;;;;;;;0.67;0.00;;;;;28.58;41.59;101177.84;5078939;27;45564;-77
2023/08/15 00:38:24;;;;;;;;;1.00;1.00;;;;;28.58;41.31;101183.22;5078384;27;46573;-77
2023/08/15 00:40:50;;;;;;;;;0.00;0.00;;;;;28.56;41.68;101184.47;5059702;28;45333;-77
2023/08/15 00:43:18;;;;;;;;;1.33;1.33;;;;;28.57;41.31;101189.63;5078474;27;45228;-77
2023/08/15 00:45:44;;;;;;;;;1.00;1.00;;;;;28.58;41.26;101187.75;5078198;27;45402;-77
2023/08/15 00:48:10;;;;;;;;;1.67;0.33;;;;;28.55;41.32;101186.31;5078247;27;46646;-77
2023/08/15 00:50:38;;;;;;;;;2.33;1.00;;;;;28.58;41.43;101190.41;5077760;28;45434;-76
2023/08/15 00:53:04;;;;;;;;;1.00;1.00;;;;;28.59;41.59;101190.22;5077120;27;45343;-77
2023/08/15 00:55:31;;;;;;;;;1.00;1.00;;;;;28.60;41.74;101191.84;5059577;27;45446;-77
2023/08/15 00:57:57;;;;;;;;;0.33;0.33;;;;;28.59;41.25;101186.72;5078178;28;45411;-77
2023/08/15 01:00:22;;;;;;;;;0.00;0.00;;;;;28.55;41.77;101186.31;5077936;27;45357;-77
2023/08/15 01:02:48;;;;;;;;;1.00;1.00;;;;;28.60;41.12;101183.81;5077623;28;45504;-77
2023/08/15 01:05:18;;;;;;;;;1.00;1.00;;;;;28.60;41.59;101191.00;5060627;28;45582;-77
2023/08/15 01:07:44;;;;;;;;;1.00;1.00;;;;;28.57;41.18;101189.63;5076219;27;46663;-76
2023/08/15 01:10:09;;;;;;;;;1.00;1.00;;;;;28.56;41.64;101182.63;5066568;27;45222;-77
2023/08/15 01:13:12;;;;;;;;;1.33;1.33;;;;;28.62;41.41;101188.97;5059727;28;45294;-76
2023/08/15 01:15:42;;;;;;;;;1.00;1.00;;;;;28.61;41.44;101185.47;5059161;27;45730;-76
2023/08/15 01:18:08;;;;;;;;;3.00;1.00;;;;;28.62;41.78;101184.41;5077525;27;46649;-76
2023/08/15 01:20:36;;;;;;;;;1.00;1.00;;;;;28.62;41.44;101186.28;5077223;27;45375;-74
2023/08/15 01:23:05;;;;;;;;;1.00;1.00;;;;;28.61;41.49;101187.31;5077081;27;45446;-77
2023/08/15 01:25:32;;;;;;;;;0.67;0.67;;;;;28.62;41.75;101180.94;5076536;27;45533;-76
2023/08/15 01:27:58;;;;;;;;;0.33;0.33;;;;;28.55;41.37;101175.63;5077330;28;47068;-77
2023/08/15 01:30:24;;;;;;;;;1.00;1.00;;;;;28.61;41.13;101180.09;5077157;28;45351;-77
2023/08/15 01:33:02;;;;;;;;;1.00;1.00;;;;;28.59;41.17;101187.53;5077600;28;45501;-77
2023/08/15 01:35:39;;;;;;;;;1.00;1.00;;;;;28.60;41.63;101193.69;5059486;28;45770;-77
2023/08/15 01:38:32;;;;;;;;;2.33;1.00;;;;;28.59;41.25;101192.91;5077253;27;45702;-77
2023/08/15 01:41:00;;;;;;;;;1.00;1.00;;;;;28.59;41.79;101192.06;5077436;27;45305;-76
2023/08/15 01:43:27;;;;;;;;;1.00;1.00;;;;;28.61;41.26;101201.53;5077437;27;45446;-77
2023/08/15 01:45:53;;;;;;;;;1.00;1.00;;;;;28.59;42.01;101202.78;5076261;28;45635;-77
2023/08/15 01:48:19;;;;;;;;;1.00;1.00;;;;;28.57;41.71;101197.66;5076194;27;48006;-77
2023/08/15 01:50:44;;;;;;;;;0.00;0.00;;;;;28.57;41.55;101204.84;5077247;27;45354;-77
2023/08/15 01:53:09;;;;;;;;;0.67;0.67;;;;;28.58;41.59;101203.81;5076950;28;46575;-77
2023/08/15 01:55:35;;;;;;;;;2.00;1.00;;;;;28.60;41.65;101207.91;5075939;27;45319;-77
2023/08/15 01:58:00;;;;;;;;;2.00;1.00;;;;;28.58;41.61;101207.31;5077066;27;48109;-77
2023/08/15 02:00:26;;;;;;;;;1.00;1.00;;;;;28.54;41.84;101200.75;5077218;28;45391;-77
2023/08/15 02:02:51;;;;;;;;;1.00;1.00;;;;;28.57;41.37;101207.53;5058973;28;45434;-77
2023/08/15 02:05:16;;;;;;;;;1.00;1.00;;;;;28.58;41.75;101203.81;5075773;28;45488;-77
2023/08/15 02:07:42;;;;;;;;;0.00;0.00;;;;;28.59;41.51;101208.13;5075349;27;45484;-77
2023/08/15 02:10:08;;;;;;;;;1.00;1.00;;;;;28.60;41.64;101205.22;5076873;27;45471;-77
2023/08/15 02:12:33;;;;;;;;;1.00;1.00;;;;;28.59;41.50;101208.97;5076251;28;45312;-77
2023/08/15 02:14:58;;;;;;;;;1.00;1.00;;;;;28.58;41.17;101201.13;5077104;27;45357;-77
2023/08/15 02:17:24;;;;;;;;;1.00;1.00;;;;;28.58;41.49;101209.97;5076432;28;48415;-77
2023/08/15 02:19:49;;;;;;;;;1.00;1.00;;;;;28.56;41.34;101197.84;5076889;28;45268;-77
2023/08/15 02:22:14;;;;;;;;;1.00;0.67;;;;;28.62;41.69;101213.06;5076575;28;45268;-77
2023/08/15 02:24:40;;;;;;;;;1.00;1.00;;;;;28.58;41.71;101209.16;5058638;28;45326;-77
2023/08/15 02:27:05;;;;;;;;;1.00;1.00;;;;;28.56;41.60;101208.56;5076525;28;46478;-77
2023/08/15 02:29:30;;;;;;;;;1.00;1.00;;;;;28.61;41.26;101222.94;5057983;27;45235;-77
2023/08/15 02:31:56;;;;;;;;;1.00;1.00;;;;;28.58;41.25;101223.38;5058757;28;45330;-77
2023/08/15 02:34:21;;;;;;;;;1.00;1.00;;;;;28.59;41.70;101235.72;5058618;28;45314;-76
2023/08/15 02:36:47;;;;;;;;;1.00;1.00;;;;;28.59;41.84;101238.41;5057528;28;48052;-77
2023/08/15 02:39:14;;;;;;;;;1.00;1.00;;;;;28.56;41.39;101241.50;5058374;28;45742;-77
2023/08/15 02:41:39;;;;;;;;;2.00;0.33;;;;;28.56;41.05;101243.34;5076284;27;45411;-77
2023/08/15 02:44:05;;;;;;;;;1.00;1.00;;;;;28.59;41.53;101256.31;5076836;28;45340;-77
2023/08/15 02:46:30;;;;;;;;;1.00;1.00;;;;;28.45;41.43;101234.16;5075913;28;46428;-77
2023/08/15 02:48:55;;;;;;;;;0.33;0.33;;;;;28.56;41.83;101262.09;5058006;28;45481;-77
2023/08/15 02:51:21;;;;;;;;;3.00;2.00;;;;;28.57;41.36;101261.88;5058068;28;45447;-77
2023/08/15 02:53:46;;;;;;;;;1.00;1.00;;;;;28.54;41.67;101259.63;5054361;28;45403;-76
2023/08/15 02:56:12;;;;;;;;;1.00;1.00;;;;;28.57;41.33;101263.75;5056005;28;46479;-77
2023/08/15 02:58:37;;;;;;;;;1.00;1.00;;;;;28.40;41.58;101234.75;5055764;28;45388;-77
2023/08/15 03:01:03;;;;;;;;;3.33;1.00;;;;;28.57;41.74;101256.53;5056518;28;45475;-77
2023/08/15 03:03:29;;;;;;;;;1.00;1.00;;;;;28.54;41.93;101256.97;5055919;28;45500;-77
2023/08/15 03:06:00;;;;;;;;;1.33;0.33;;;;;28.54;41.39;101256.97;5055243;28;46429;-77
2023/08/15 03:08:25;;;;;;;;;1.67;1.67;;;;;28.56;41.44;101264.75;5055827;28;45383;-77
2023/08/15 03:10:51;;;;;;;;;0.33;0.33;;;;;28.57;41.87;101264.56;5075027;27;45358;-77
2023/08/15 03:13:17;;;;;;;;;1.67;1.67;;;;;28.57;41.32;101263.75;5076006;28;45355;-77
2023/08/15 03:15:54;;;;;;;;;1.33;1.33;;;;;28.55;41.60;101260.47;5057874;28;47439;-76
2023/08/15 03:18:19;;;;;;;;;2.00;1.67;;;;;28.57;41.76;101261.88;5075680;28;45486;-77
2023/08/15 03:20:54;;;;;;;;;1.00;1.00;;;;;28.59;41.17;101267.84;5076266;27;45375;-77
2023/08/15 03:23:19;;;;;;;;;1.00;1.00;;;;;28.56;41.38;101265.59;5058048;28;45574;-77
2023/08/15 03:25:53;;;;;;;;;2.00;1.00;;;;;28.56;41.15;101262.09;5057574;28;45508;-76
2023/08/15 03:28:19;;;;;;;;;0.33;0.33;;;;;28.54;41.72;101273.03;5075067;27;45350;-76
2023/08/15 03:30:44;;;;;;;;;0.33;0.33;;;;;28.54;41.74;101265.00;5075668;28;45443;-77
2023/08/15 03:33:09;;;;;;;;;1.33;1.33;;;;;28.54;41.91;101265.00;5057315;28;45448;-77
2023/08/15 03:35:35;;;;;;;;;1.33;1.33;;;;;28.56;41.74;101273.63;5074701;28;45433;-77
2023/08/15 03:38:00;;;;;;;;;1.00;1.00;;;;;28.57;41.39;101271.78;5075570;28;45363;-77
2023/08/15 03:40:25;;;;;;;;;1.00;1.00;;;;;28.54;41.44;101262.31;5075544;27;45465;-77
2023/08/15 03:42:51;;;;;;;;;1.00;1.00;;;;;28.55;41.18;101261.25;5057626;27;45285;-76
2023/08/15 03:45:16;;;;;;;;;0.33;0.33;;;;;28.49;41.35;101252.25;5075328;27;45350;-77
2023/08/15 03:47:41;;;;;;;;;1.33;1.33;;;;;28.52;41.61;101254.47;5075380;28;45350;-77
2023/08/15 03:50:07;;;;;;;;;0.67;0.67;;;;;28.56;41.89;101257.56;5061074;28;45388;-76
2023/08/15 03:52:34;;;;;;;;;1.00;1.00;;;;;28.52;42.00;101251.00;5057766;28;45326;-77
2023/08/15 03:55:00;;;;;;;;;0.00;0.00;;;;;28.50;41.51;101247.69;5058747;28;45591;-77
2023/08/15 03:57:25;;;;;;;;;0.33;0.33;;;;;28.55;41.75;101261.25;5058319;28;45381;-77
2023/08/15 03:59:51;;;;;;;;;2.00;0.00;;;;;28.51;41.63;101262.75;5040712;28;45377;-77
2023/08/15 04:02:16;;;;;;;;;2.33;1.00;;;;;28.52;41.43;101264.41;5057211;28;45332;-76
2023/08/15 04:04:41;;;;;;;;;1.00;1.00;;;;;28.56;41.71;101270.13;5058657;28;46548;-77
2023/08/15 04:07:07;;;;;;;;;2.00;1.00;;;;;28.56;41.73;101262.09;5058574;28;45371;-76
2023/08/15 04:09:32;;;;;;;;;1.00;1.00;;;;;28.53;41.60;101260.66;5066823;27;45337;-77
2023/08/15 04:11:57;;;;;;;;;1.00;1.00;;;;;28.54;41.48;101264.16;5077875;28;45547;-77
2023/08/15 04:14:23;;;;;;;;;1.67;1.00;;;;;28.51;41.62;101266.25;5078575;27;46317;-77
2023/08/15 04:16:48;;;;;;;;;1.00;1.00;;;;;28.38;41.41;101251.03;5078589;27;45529;-77
2023/08/15 04:19:13;;;;;;;;;1.00;1.00;;;;;28.48;41.64;101271.19;5078765;27;45263;-77
2023/08/15 04:21:39;;;;;;;;;1.00;1.00;;;;;28.51;41.62;101284.97;5078573;27;45263;-77
2023/08/15 04:24:04;;;;;;;;;1.00;1.00;;;;;28.54;41.39;101297.09;5077191;27;47977;-76
2023/08/15 04:26:30;;;;;;;;;2.00;2.00;;;;;28.54;41.60;101305.13;5077732;27;45276;-77
2023/08/15 04:28:56;;;;;;;;;1.00;1.00;;;;;28.51;41.35;101302.88;5078543;27;45311;-77
2023/08/15 04:31:21;;;;;;;;;0.00;0.00;;;;;28.54;41.87;101307.00;5078285;27;45416;-77
2023/08/15 04:33:46;;;;;;;;;0.00;0.00;;;;;28.51;41.68;101305.56;5077121;28;47048;-76
2023/08/15 04:36:12;;;;;;;;;1.00;1.00;;;;;28.57;41.36;101309.25;5077198;27;45403;-76
2023/08/15 04:38:37;;;;;;;;;0.67;0.67;;;;;28.52;41.29;101301.88;5078573;27;45421;-76
2023/08/15 04:41:05;;;;;;;;;0.67;0.00;;;;;28.56;42.03;101311.09;5077238;27;45575;-77
2023/08/15 04:43:31;;;;;;;;;1.00;1.00;;;;;28.52;41.92;101313.38;5078149;28;46675;-77
2023/08/15 04:45:56;;;;;;;;;1.33;1.00;;;;;28.54;41.33;101313.16;5077762;27;45328;-77
2023/08/15 04:48:23;;;;;;;;;1.00;1.00;;;;;28.54;41.40;101313.16;5077052;27;45410;-77
2023/08/15 04:50:48;;;;;;;;;1.00;1.00;;;;;28.55;41.74;101320.16;5076882;27;45333;-77
2023/08/15 04:53:13;;;;;;;;;2.00;2.00;;;;;28.51;41.27;101303.72;5077750;27;46378;-77
2023/08/15 04:55:39;;;;;;;;;1.00;1.00;;;;;28.55;41.65;101317.47;5077289;28;45366;-77
2023/08/15 04:58:04;;;;;;;;;1.00;1.00;;;;;28.47;41.71;101313.19;5078273;28;45363;-77
2023/08/15 05:00:30;;;;;;;;;1.67;1.00;;;;;28.53;41.32;101332.94;5077734;27;45575;-77
2023/08/15 05:02:55;;;;;;;;;2.00;2.00;;;;;28.53;41.83;101338.28;5078077;28;46148;-76
2023/08/15 05:05:20;;;;;;;;;4.33;1.00;;;;;28.50;41.80;101336.03;5076797;28;45332;-77
2023/08/15 05:07:46;;;;;;;;;1.00;1.00;;;;;28.48;41.64;101335.41;5060108;28;45383;-77
2023/08/15 05:10:11;;;;;;;;;1.00;1.00;;;;;28.52;41.62;101342.00;5077978;27;45364;-77
2023/08/15 05:12:37;;;;;;;;;1.00;1.00;;;;;28.50;41.75;101344.06;5077463;27;46667;-77
2023/08/15 05:15:02;;;;;;;;;1.00;1.00;;;;;28.50;41.40;101347.56;5076500;27;45265;-77
2023/08/15 05:17:28;;;;;;;;;1.33;1.33;;;;;28.49;41.33;101359.31;5059807;28;45200;-76
2023/08/15 05:19:53;;;;;;;;;2.00;2.00;;;;;28.49;41.90;101358.47;5078015;27;45299;-77
2023/08/15 05:22:19;;;;;;;;;0.33;0.33;;;;;28.51;41.47;101356.41;5076737;27;45499;-76
2023/08/15 05:24:44;;;;;;;;;2.00;2.00;;;;;28.47;41.36;101360.56;5077467;28;45309;-77
2023/08/15 05:27:13;;;;;;;;;1.67;1.67;;;;;28.49;41.10;101362.00;5076778;28;45318;-77
2023/08/15 05:29:41;;;;;;;;;0.67;0.67;;;;;28.50;41.87;101373.50;5059210;28;45650;-77
2023/08/15 05:32:07;;;;;;;;;1.00;1.00;;;;;28.48;41.88;101375.56;5076949;28;46546;-77
2023/08/15 05:34:32;;;;;;;;;1.33;1.33;;;;;28.48;41.67;101380.91;5077644;27;45324;-77
2023/08/15 05:36:57;;;;;;;;;1.00;1.00;;;;;28.52;41.18;101392.84;5059513;28;45377;-77
2023/08/15 05:39:23;;;;;;;;;1.33;1.00;;;;;28.53;42.01;101394.47;5059286;28;45325;-77
2023/08/15 05:41:48;;;;;;;;;1.67;1.00;;;;;28.47;41.86;101390.00;5076660;27;45344;-77
2023/08/15 05:44:13;;;;;;;;;1.00;1.00;;;;;28.54;41.27;101406.84;5058756;28;45495;-77
2023/08/15 05:46:39;;;;;;;;;1.00;1.00;;;;;28.52;41.79;101407.03;5077705;27;45706;-77
2023/08/15 05:49:04;;;;;;;;;1.67;1.67;;;;;28.55;41.79;101421.06;5076327;27;45618;-77
2023/08/15 05:51:29;;;;;;;;;1.00;1.00;;;;;28.54;41.81;101419.41;5076847;27;47963;-77
2023/08/15 05:53:55;;;;;;;;;2.00;1.00;;;;;28.55;41.31;101424.53;5077161;27;45395;-77
2023/08/15 05:56:20;;;;;;;;;2.33;0.33;;;;;28.52;41.70;101411.59;5076290;27;45944;-77
2023/08/15 05:58:46;;;;;;;;;2.00;1.00;;;;;28.52;41.79;101419.63;5077033;28;45403;-77
2023/08/15 06:01:11;;;;;;;;;1.00;1.00;;;;;28.51;41.61;101416.13;5076763;28;47035;-77
2023/08/15 06:03:36;;;;;;;;;1.67;1.67;;;;;28.50;41.65;101411.78;5076941;28;45408;-77
2023/08/15 06:06:02;;;;;;;;;0.00;0.00;;;;;28.56;41.36;101417.34;5076039;28;45420;-78
2023/08/15 06:08:28;;;;;;;;;1.33;1.00;;;;;28.56;41.29;101412.81;5059002;28;45401;-77
2023/08/15 06:10:53;;;;;;;;;1.00;1.00;;;;;28.55;41.41;101415.72;5076130;27;46572;-77
2023/08/15 06:13:19;;;;;;;;;1.00;1.00;;;;;28.58;41.57;101421.44;5057603;28;45423;-77
2023/08/15 06:15:44;;;;;;;;;1.33;1.33;;;;;28.55;41.47;101416.50;5077228;27;45352;-77
2023/08/15 06:18:09;;;;;;;;;1.00;1.00;;;;;28.56;41.41;101420.00;5077125;27;45478;-77
2023/08/15 06:20:36;;;;;;;;;1.00;1.00;;;;;28.53;41.60;101423.94;5076709;28;45377;-77
2023/08/15 06:23:02;;;;;;;;;1.00;1.00;;;;;28.57;41.83;101430.53;5076838;27;45585;-77
2023/08/15 06:25:27;;;;;;;;;1.33;1.33;;;;;28.57;41.46;101430.53;5076864;28;45685;-77
2023/08/15 06:27:53;;;;;;;;;1.00;1.00;;;;;28.56;41.75;101436.91;5076377;28;45372;-77
2023/08/15 06:30:18;;;;;;;;;0.67;0.67;;;;;28.50;41.81;101425.16;5076711;27;46493;-77
2023/08/15 06:32:45;;;;;;;;;1.00;1.00;;;;;28.60;41.21;101434.59;5058374;28;45480;-77
2023/08/15 06:35:11;;;;;;;;;1.67;1.67;;;;;28.60;41.33;101440.78;5076989;27;45372;-77
2023/08/15 06:37:36;;;;;;;;;1.00;1.00;;;;;28.56;41.26;101430.72;5076374;28;45494;-77
2023/08/15 06:40:03;;;;;;;;;1.00;1.00;;;;;28.60;41.45;101445.31;5076773;27;46203;-77
2023/08/15 06:42:28;;;;;;;;;1.00;1.00;;;;;28.52;41.45;101433.00;5076244;28;45293;-77
2023/08/15 06:45:11;;;;;;;;;1.00;1.00;;;;;28.60;42.00;101442.63;5076587;27;45341;-77
2023/08/15 06:47:37;;;;;;;;;1.00;1.00;;;;;28.62;41.66;101440.59;5076588;28;45347;-77
2023/08/15 06:50:02;;;;;;;;;2.00;1.00;;;;;28.54;41.87;101435.47;5076433;28;45580;-77
2023/08/15 06:52:28;;;;;;;;;1.00;1.00;;;;;28.60;41.20;101448.81;5076178;27;45455;-77
2023/08/15 06:54:53;;;;;;;;;0.00;0.00;;;;;28.62;41.36;101448.63;5076525;27;45294;-76
2023/08/15 06:57:18;;;;;;;;;1.33;1.33;;;;;28.62;41.50;101438.72;5076083;27;45190;-77
2023/08/15 06:59:44;;;;;;;;;0.67;0.67;;;;;28.75;41.70;101445.06;5076038;28;47258;-77
2023/08/15 07:02:10;;;;;;;;;0.00;0.00;;;;;28.80;41.03;101450.63;5076376;28;45372;-77
2023/08/15 07:04:40;;;;;;;;;1.67;1.67;;;;;28.76;41.28;101446.69;5076153;28;45313;-77
2023/08/15 07:07:05;;;;;;;;;1.33;1.33;;;;;28.83;41.00;101465.44;5076316;27;45437;-77
2023/08/15 07:09:32;;;;;;;;;0.67;0.67;;;;;28.77;40.88;101451.03;5070009;28;47454;-77
2023/08/15 07:11:58;;;;;;;;;1.00;1.00;;;;;28.75;41.04;101445.06;5075785;27;45447;-77
2023/08/15 07:14:23;;;;;;;;;1.33;1.33;;;;;28.81;41.32;101459.44;5075569;28;45296;-77
2023/08/15 07:16:49;;;;;;;;;3.00;2.00;;;;;28.80;40.90;101466.69;5076210;28;45486;-77
2023/08/15 07:19:15;;;;;;;;;1.33;1.33;;;;;28.82;41.17;101472.63;5074510;28;46109;-77
2023/08/15 07:21:41;;;;;;;;;0.67;0.67;;;;;28.79;41.31;101470.38;5057816;27;45615;-77
2023/08/15 07:24:07;;;;;;;;;1.00;1.00;;;;;28.80;41.13;101472.03;5077910;27;45248;-77
2023/08/15 07:26:32;;;;;;;;;1.67;1.33;;;;;28.82;41.23;101471.81;5079073;28;45552;-77
2023/08/15 07:28:57;;;;;;;;;1.00;1.00;;;;;28.81;41.02;101475.50;5079487;27;45376;-77
2023/08/15 07:31:23;;;;;;;;;1.00;1.00;;;;;28.81;41.11;101484.38;5061243;27;45439;-77
2023/08/15 07:33:48;;;;;;;;;1.33;1.33;;;;;28.84;41.16;101480.44;5061454;28;45422;-77
2023/08/15 07:36:13;;;;;;;;;0.67;0.67;;;;;28.79;40.89;101472.22;5079527;27;45508;-77
2023/08/15 07:38:39;;;;;;;;;0.67;0.67;;;;;28.85;41.31;101492.81;5079703;28;46542;-77
2023/08/15 07:41:04;;;;;;;;;1.33;1.33;;;;;28.77;41.08;101491.19;5078541;27;45322;-77
2023/08/15 07:43:30;;;;;;;;;1.67;1.67;;;;;28.81;41.25;101502.28;5079233;27;45389;-77
2023/08/15 07:45:55;;;;;;;;;0.67;0.67;;;;;28.82;41.00;101506.63;5061206;28;45316;-77
2023/08/15 07:48:21;;;;;;;;;0.67;0.33;;;;;28.67;41.38;101480.09;5079199;27;45492;-77
2023/08/15 07:50:46;;;;;;;;;1.00;1.00;;;;;28.79;41.09;101504.38;5079202;27;45382;-77
2023/08/15 07:53:12;;;;;;;;;0.67;0.67;;;;;28.76;41.32;101502.09;5079103;28;45514;-77
2023/08/15 07:55:38;;;;;;;;;1.00;1.00;;;;;28.70;40.86;101496.56;5078810;27;45470;-77
2023/08/15 07:58:03;;;;;;;;;2.00;1.00;;;;;28.73;41.34;101514.88;5078912;28;46383;-77
2023/08/15 08:00:29;;;;;;;;;1.67;1.67;;;;;28.72;41.41;101515.94;5061023;27;45391;-77
2023/08/15 08:02:54;;;;;;;;;1.00;1.00;;;;;28.74;41.08;101524.56;5077634;27;45235;-77
2023/08/15 08:05:20;;;;;;;;;1.00;1.00;;;;;28.77;41.23;101525.19;5078903;27;45648;-77
2023/08/15 08:07:46;;;;;;;;;1.33;1.33;;;;;28.72;41.20;101521.28;5078876;28;45475;-77
2023/08/15 08:10:12;;;;;;;;;1.00;1.00;;;;;28.76;41.28;101527.03;5078389;27;45367;-78
2023/08/15 08:12:37;;;;;;;;;1.00;1.00;;;;;28.72;41.29;101526.66;5078946;27;45434;-77
2023/08/15 08:15:04;;;;;;;;;1.00;1.00;;;;;28.68;41.29;101522.72;5079749;27;45552;-77
2023/08/15 08:17:29;;;;;;;;;3.00;1.67;;;;;28.71;41.35;101532.19;5078601;27;46347;-77
2023/08/15 08:19:54;;;;;;;;;2.67;1.67;;;;;28.72;41.08;101536.53;5079123;27;46096;-77
2023/08/15 08:22:20;;;;;;;;;1.67;1.67;;;;;28.73;41.14;101544.34;5078832;27;45406;-78
2023/08/15 08:24:48;;;;;;;;;1.00;1.00;;;;;28.73;41.36;101544.34;5060451;28;45614;-77
2023/08/15 08:27:14;;;;;;;;;2.00;2.00;;;;;28.70;41.47;101547.44;5078651;28;47571;-77
2023/08/15 08:29:39;;;;;;;;;1.00;1.00;;;;;28.71;41.23;101548.25;5078492;27;45321;-77
2023/08/15 08:32:05;;;;;;;;;1.33;0.33;;;;;28.67;41.56;101547.03;5078668;28;45316;-77
2023/08/15 08:34:30;;;;;;;;;0.67;0.67;;;;;28.71;41.42;101556.28;5078222;27;45490;-76
2023/08/15 08:36:55;;;;;;;;;1.00;1.00;;;;;28.66;41.07;101543.53;5078450;27;45348;-77
2023/08/15 08:39:21;;;;;;;;;1.00;1.00;;;;;28.62;41.04;101542.31;5078241;27;45444;-77
2023/08/15 08:41:47;;;;;;;;;2.00;2.00;;;;;28.60;41.38;101547.03;5060312;27;45387;-77
2023/08/15 08:44:13;;;;;;;;;1.00;1.00;;;;;28.71;41.45;101558.97;5077535;27;45540;-77
2023/08/15 08:46:39;;;;;;;;;1.00;1.00;;;;;28.65;41.53;101549.91;5078082;27;46697;-77
2023/08/15 08:49:06;;;;;;;;;0.33;0.33;;;;;28.67;41.24;101555.06;5078191;28;45309;-77
2023/08/15 08:51:32;;;;;;;;;1.00;1.00;;;;;28.66;41.62;101553.41;5077878;27;45357;-77
2023/08/15 08:53:58;;;;;;;;;2.33;1.33;;;;;28.70;41.18;101558.13;5077673;27;45648;-77
2023/08/15 08:56:25;;;;;;;;;2.00;2.00;;;;;28.68;41.29;101557.53;5077503;28;45405;-77
2023/08/15 08:58:56;;;;;;;;;1.00;1.00;;;;;28.67;41.25;101558.56;5078049;27;45352;-77
2023/08/15 09:01:22;;;;;;;;;1.67;1.67;;;;;28.68;41.38;101562.06;5078159;27;45382;-77
2023/08/15 09:03:47;;;;;;;;;2.00;2.00;;;;;28.69;41.23;101559.19;5078034;27;45540;-76
2023/08/15 09:06:13;;;;;;;;;1.00;1.00;;;;;28.72;41.15;101566.81;5059378;28;46539;-77
2023/08/15 09:08:38;;;;;;;;;1.00;1.00;;;;;28.70;41.36;101560.00;5077726;27;45265;-77
2023/08/15 09:11:03;;;;;;;;;1.00;1.00;;;;;28.72;41.57;101558.78;5059315;28;45350;-77
2023/08/15 09:13:29;;;;;;;;;1.00;1.00;;;;;28.72;41.25;101564.13;5077675;28;45514;-77
2023/08/15 09:15:56;;;;;;;;;1.67;1.67;;;;;28.64;41.71;101550.94;5077816;28;46582;-77
2023/08/15 09:18:22;;;;;;;;;0.67;0.67;;;;;28.72;41.21;101565.97;5077939;27;45362;-77
2023/08/15 09:20:48;;;;;;;;;1.00;1.00;;;;;28.69;41.04;101566.38;5076681;27;45359;-77
2023/08/15 09:23:15;;;;;;;;;1.00;1.00;;;;;28.72;41.48;101564.13;5077857;28;45475;-77
2023/08/15 09:25:41;;;;;;;;;1.00;1.00;;;;;28.72;41.85;101574.84;5077474;27;46459;-77
2023/08/15 09:28:06;;;;;;;;;1.00;1.00;;;;;28.68;41.52;101564.72;5059222;28;45367;-77
2023/08/15 09:30:32;;;;;;;;;1.00;1.00;;;;;28.68;41.04;101567.41;5077771;27;45400;-77
2023/08/15 09:33:00;;;;;;;;;1.67;1.67;;;;;28.70;41.46;101576.88;5077358;27;45297;-77
2023/08/15 09:35:25;;;;;;;;;0.00;0.00;;;;;28.71;41.01;101580.38;5058879;28;47343;-76
2023/08/15 09:37:51;;;;;;;;;2.00;2.00;;;;;28.69;41.22;101567.22;5077443;28;45380;-77
2023/08/15 09:40:18;;;;;;;;;1.00;1.00;;;;;28.73;41.42;101573.78;5077665;27;45699;-77
2023/08/15 09:42:45;;;;;;;;;1.00;1.00;;;;;28.68;41.60;101570.91;5077441;27;45488;-77
2023/08/15 09:45:12;;;;;;;;;1.00;1.00;;;;;28.72;40.99;101574.00;5077184;27;46345;-77
2023/08/15 09:47:39;;;;;;;;;2.00;1.00;;;;;28.72;41.32;101565.97;5076560;28;45335;-77
2023/08/15 09:50:07;;;;;;;;;1.00;1.00;;;;;28.72;41.21;101558.78;5076878;27;45297;-77
2023/08/15 09:52:34;;;;;;;;;1.00;1.00;;;;;28.69;41.01;101561.88;5077219;28;45316;-77
2023/08/15 09:55:00;;;;;;;;;1.00;1.00;;;;;28.70;41.21;101558.13;5077008;27;45409;-77
2023/08/15 09:57:25;;;;;;;;;3.00;1.67;;;;;28.63;41.40;101544.78;5077080;28;45406;-77
2023/08/15 09:59:51;;;;;;;;;1.00;1.00;;;;;28.73;40.56;101552.38;5077185;27;45374;-77
2023/08/15 10:02:22;;;;;;;;;1.00;1.00;;;;;28.77;41.22;101568.03;5058988;27;45408;-77
2023/08/15 10:04:55;;;;;;;;;1.00;1.00;;;;;28.68;40.94;101546.81;5076474;27;45369;-77
2023/08/15 10:07:22;;;;;;;;;0.33;0.33;;;;;28.81;40.97;101555.84;5077019;27;45269;-77
2023/08/15 10:09:50;;;;;;;;;0.00;0.00;;;;;28.80;41.03;101547.00;5068718;27;45258;-77
2023/08/15 10:12:17;;;;;;;;;1.00;1.00;;;;;28.88;41.23;101553.16;5076942;28;45368;-77
2023/08/15 10:14:44;;;;;;;;;1.00;1.00;;;;;28.90;41.17;101553.78;5076425;28;45710;-77
2023/08/15 10:17:09;;;;;;;;;1.00;1.00;;;;;28.88;40.79;101542.47;5058464;28;45333;-77
2023/08/15 10:19:35;;;;;;;;;0.00;0.00;;;;;28.93;41.11;101561.41;5076292;28;45362;-77
2023/08/15 10:22:03;;;;;;;;;1.00;1.00;;;;;28.89;40.95;101552.94;5058610;28;45562;-77
2023/08/15 10:24:29;;;;;;;;;2.00;2.00;;;;;28.94;41.26;101557.66;5076644;28;45500;-78
2023/08/15 10:26:58;;;;;;;;;1.00;1.00;;;;;28.94;41.19;101560.34;5076455;27;45380;-77
2023/08/15 10:29:25;;;;;;;;;1.00;1.00;;;;;28.89;41.29;101560.16;5076565;28;45364;-78
2023/08/15 10:31:59;;;;;;;;;0.33;0.33;;;;;28.93;40.95;101561.41;5058680;28;45368;-78
2023/08/15 10:34:32;;;;;;;;;0.67;0.67;;;;;28.94;41.09;101573.75;5076113;28;47485;-78
2023/08/15 10:37:41;;;;;;;;;0.67;0.67;;;;;28.81;41.40;101542.47;5076526;27;45296;-77
2023/08/15 10:40:08;;;;;;;;;1.00;1.00;;;;;28.99;41.00;101565.09;5076513;27;45363;-77
2023/08/15 10:43:01;;;;;;;;;0.00;0.00;;;;;28.99;41.31;101571.25;5076611;27;45548;-77
2023/08/15 10:45:50;;;;;;;;;1.67;1.67;;;;;28.98;40.99;101568.78;5076068;28;47280;-77
2023/08/15 10:48:34;;;;;;;;;2.00;2.00;;;;;28.97;41.09;101565.28;5075975;28;45442;-77
2023/08/15 10:51:00;;;;;;;;;1.33;1.00;;;;;28.96;40.95;101572.50;5058076;28;45467;-77
2023/08/15 10:53:25;;;;;;;;;1.00;1.00;;;;;28.93;40.88;101564.91;5054438;28;45683;-77
2023/08/15 10:55:54;;;;;;;;;1.00;1.00;;;;;28.95;40.90;101572.72;5054607;28;48435;-77
2023/08/15 10:58:21;;;;;;;;;2.00;2.00;;;;;28.94;41.32;101568.38;5055676;28;45299;-77
2023/08/15 11:00:49;;;;;;;;;2.00;1.00;;;;;28.95;41.08;101560.16;5054789;28;45383;-77
2023/08/15 11:03:15;;;;;;;;;1.67;1.00;;;;;28.98;41.32;101558.09;5055460;28;45318;-77
2023/08/15 11:05:42;;;;;;;;;1.00;1.00;;;;;28.96;41.24;101564.47;5055779;28;46570;-77
2023/08/15 11:08:11;;;;;;;;;2.00;2.00;;;;;28.97;41.18;101559.94;5054335;28;45418;-77
2023/08/15 11:10:36;;;;;;;;;2.00;1.00;;;;;28.92;40.90;101555.22;5071787;27;45395;-77
2023/08/15 11:13:01;;;;;;;;;1.00;1.00;;;;;28.89;41.38;101555.63;5076023;28;45620;-77
2023/08/15 11:15:27;;;;;;;;;3.00;2.00;;;;;28.93;41.09;101564.91;5075946;28;46508;-77
2023/08/15 11:17:53;;;;;;;;;1.00;1.00;;;;;28.92;40.91;101563.25;5075641;27;45355;-77
2023/08/15 11:20:20;;;;;;;;;1.00;1.00;;;;;28.90;41.38;101559.97;5076030;27;45422;-77
2023/08/15 11:22:55;;;;;;;;;1.00;1.00;;;;;28.93;40.95;101564.06;5075947;28;45345;-77